createdAt,value
2023-04-03T00:00:50.787Z,3.38
2023-04-03T00:03:53.232Z,3.63
2023-04-03T00:06:55.556Z,3.42
2023-04-03T00:09:57.754Z,3.28
2023-04-03T00:12:59.999Z,3.92
2023-04-03T00:16:04.390Z,4.38
2023-04-03T00:19:06.819Z,2.80
2023-04-03T00:22:08.854Z,3.67
2023-04-03T00:25:12.880Z,5.25
2023-04-03T00:28:15.055Z,3.22
2023-04-03T00:31:17.676Z,3.38
2023-04-03T00:34:21.019Z,3.70
2023-04-03T00:37:24.874Z,4.68
2023-04-03T00:40:28.980Z,3.22
2023-04-03T00:43:31.913Z,3.70
2023-04-03T00:46:34.109Z,3.45
2023-04-03T00:49:38.410Z,3.42
2023-04-03T00:52:41.151Z,3.30
2023-04-03T00:55:44.531Z,3.35
2023-04-03T00:59:05.262Z,2.55
2023-04-03T01:02:08.138Z,3.80
2023-04-03T01:05:11.083Z,3.28
2023-04-03T01:08:13.440Z,3.20
2023-04-03T01:11:19.050Z,3.28
2023-04-03T01:14:23.159Z,3.67
2023-04-03T01:18:01.701Z,2.95
2023-04-03T01:21:37.161Z,3.00
2023-04-03T01:24:42.430Z,2.90
2023-04-03T01:27:46.371Z,3.60
2023-04-03T01:31:09.743Z,4.18
2023-04-03T01:34:12.096Z,3.75
2023-04-03T01:37:14.309Z,4.75
2023-04-03T01:40:16.486Z,3.75
2023-04-03T01:43:19.285Z,3.78
2023-04-03T01:46:23.285Z,4.53
2023-04-03T01:49:25.661Z,3.20
2023-04-03T01:52:27.773Z,3.90
2023-04-03T01:55:29.916Z,5.57
2023-04-03T01:58:33.182Z,3.17
2023-04-03T02:01:36.630Z,3.13
2023-04-03T02:04:42.188Z,3.58
2023-04-03T02:07:44.452Z,3.38
2023-04-03T02:10:49.560Z,4.68
2023-04-03T02:13:51.765Z,3.85
2023-04-03T02:16:54.328Z,4.20
2023-04-03T02:19:58.436Z,4.72
2023-04-03T02:23:01.299Z,3.72
2023-04-03T02:26:08.819Z,3.17
2023-04-03T02:29:10.935Z,3.70
2023-04-03T02:32:13.193Z,5.30
2023-04-03T02:35:15.932Z,4.57
2023-04-03T02:38:18.618Z,4.00
2023-04-03T02:41:22.240Z,2.85
2023-04-03T02:44:26.637Z,3.30
2023-04-03T02:47:29.492Z,4.13
2023-04-03T02:50:31.774Z,2.85
2023-04-03T02:53:34.072Z,3.83
2023-04-03T02:56:42.845Z,3.58
2023-04-03T02:59:45.434Z,3.75
2023-04-03T03:02:50.591Z,3.83
2023-04-03T03:06:03.031Z,2.63
2023-04-03T03:09:06.898Z,3.47
2023-04-03T03:12:09.022Z,3.90
2023-04-03T03:15:11.615Z,3.35
2023-04-03T03:18:13.908Z,2.80
2023-04-03T03:21:16.699Z,3.70
2023-04-03T03:24:18.869Z,4.68
2023-04-03T03:27:21.117Z,4.88
2023-04-03T03:30:23.330Z,5.50
2023-04-03T03:33:26.486Z,6.60
2023-04-03T03:36:28.566Z,6.53
2023-04-03T03:39:30.857Z,6.18
2023-04-03T03:42:33.226Z,7.10
2023-04-03T03:45:35.818Z,8.80
2023-04-03T03:48:38.253Z,7.70
2023-04-03T03:51:41.243Z,8.65
2023-04-03T03:54:43.876Z,9.38
2023-04-03T03:57:46.790Z,12.38
2023-04-03T04:00:49.051Z,9.05
2023-04-03T04:03:51.425Z,9.02
2023-04-03T04:06:58.188Z,11.43
2023-04-03T04:10:00.528Z,8.68
2023-04-03T04:13:02.964Z,8.77
2023-04-03T04:16:05.581Z,10.00
2023-04-03T04:19:09.124Z,8.98
2023-04-03T04:22:13.101Z,9.63
2023-04-03T04:25:15.662Z,8.85
2023-04-03T04:28:18.784Z,9.07
2023-04-03T04:31:23.498Z,9.23
2023-04-03T04:34:26.113Z,6.97
2023-04-03T04:37:28.473Z,8.48
2023-04-03T04:40:33.722Z,7.72
2023-04-03T04:43:36.197Z,7.18
2023-04-03T04:46:38.604Z,7.43
2023-04-03T04:49:42.553Z,7.93
2023-04-03T04:52:46.593Z,8.57
2023-04-03T04:55:49.783Z,6.13
2023-04-03T04:58:52.479Z,7.07
2023-04-03T05:01:58.803Z,7.72
2023-04-03T05:11:00.575Z,6.38
2023-04-03T05:49:06.474Z,6.13
2023-04-03T05:52:33.000Z,8.27
2023-04-03T05:55:35.794Z,7.00
2023-04-03T05:58:40.607Z,7.93
2023-04-03T06:01:42.895Z,7.50
2023-04-03T06:08:55.661Z,7.80
2023-04-03T06:12:00.003Z,8.23
2023-04-03T06:15:04.810Z,4.85
2023-04-03T06:18:08.835Z,4.35
2023-04-03T06:21:11.424Z,3.90
2023-04-03T06:24:17.399Z,4.43
2023-04-03T06:27:20.234Z,4.50
2023-04-03T06:30:23.020Z,4.18
2023-04-03T06:33:25.198Z,4.25
2023-04-03T06:36:29.909Z,3.55
2023-04-03T06:39:32.381Z,3.97
2023-04-03T06:42:36.492Z,4.05
2023-04-03T06:45:46.552Z,3.80
2023-04-03T06:48:50.067Z,3.17
2023-04-03T06:51:53.149Z,4.15
2023-04-03T06:54:58.549Z,3.58
2023-04-03T06:58:01.781Z,2.45
2023-04-03T07:01:04.540Z,2.88
2023-04-03T07:04:07.113Z,3.08
2023-04-03T07:07:09.525Z,2.72
2023-04-03T07:10:12.482Z,1.73
2023-04-03T07:13:15.905Z,2.90
2023-04-03T07:16:18.273Z,2.78
2023-04-03T07:19:22.572Z,3.20
2023-04-03T07:22:25.652Z,4.22
2023-04-03T07:25:27.817Z,3.05
2023-04-03T07:28:33.099Z,3.70
2023-04-03T07:31:35.906Z,3.10
2023-04-03T07:34:39.764Z,2.75
2023-04-03T07:37:42.284Z,1.98
2023-04-03T07:40:49.292Z,3.72
2023-04-03T07:43:51.403Z,3.00
2023-04-03T07:46:53.619Z,3.38
2023-04-03T07:49:55.865Z,3.30
2023-04-03T07:52:59.061Z,3.33
2023-04-03T07:56:03.946Z,2.97
2023-04-03T07:59:06.324Z,3.85
2023-04-03T08:02:11.127Z,3.30
2023-04-03T08:05:14.639Z,2.83
2023-04-03T08:08:21.472Z,2.85
2023-04-03T08:11:24.910Z,3.78
2023-04-03T08:14:28.197Z,3.05
2023-04-03T08:17:31.896Z,5.45
2023-04-03T08:20:35.429Z,2.92
2023-04-03T08:23:38.380Z,2.22
2023-04-03T08:26:43.801Z,1.98
2023-04-03T08:29:48.995Z,2.55
2023-04-03T08:32:52.000Z,2.47
2023-04-03T08:35:54.157Z,2.80
2023-04-03T08:38:59.016Z,2.92
2023-04-03T08:42:10.593Z,1.63
2023-04-03T08:45:39.327Z,2.33
2023-04-03T08:48:44.061Z,2.03
2023-04-03T08:51:59.828Z,2.40
2023-04-03T08:55:05.852Z,2.38
2023-04-03T08:58:17.701Z,2.38
2023-04-03T09:01:22.891Z,2.20
2023-04-03T09:04:28.831Z,2.25
2023-04-03T09:07:43.364Z,2.78
2023-04-03T09:10:46.223Z,2.50
2023-04-03T09:13:56.349Z,3.45
2023-04-03T09:17:03.210Z,5.60
2023-04-03T09:20:21.267Z,4.38
2023-04-03T09:23:51.747Z,4.30
2023-04-03T09:27:00.870Z,7.25
2023-04-03T09:30:04.164Z,7.07
2023-04-03T09:33:08.211Z,5.28
2023-04-03T09:36:10.505Z,6.18
2023-04-03T09:39:17.132Z,5.65
2023-04-03T09:42:33.690Z,9.13
2023-04-03T09:45:38.192Z,9.43
2023-04-03T09:48:55.037Z,7.40
2023-04-03T09:52:28.067Z,5.25
2023-04-03T09:55:31.297Z,9.15
2023-04-03T09:58:49.643Z,7.93
2023-04-03T10:02:26.617Z,6.40
2023-04-03T10:05:42.915Z,4.30
2023-04-03T10:09:05.526Z,5.45
2023-04-03T10:12:10.337Z,3.58
2023-04-03T10:15:28.720Z,3.25
2023-04-03T10:18:48.924Z,5.40
2023-04-03T10:22:01.884Z,2.20
2023-04-03T10:25:22.294Z,2.33
2023-04-03T10:28:42.516Z,2.30
2023-04-03T10:31:53.445Z,2.95
2023-04-03T10:35:34.780Z,3.75
2023-04-03T10:38:58.850Z,3.35
2023-04-03T10:42:28.790Z,3.10
2023-04-03T10:46:03.433Z,3.00
2023-04-03T10:49:30.450Z,3.60
2023-04-03T10:52:55.103Z,3.38
2023-04-03T10:56:28.093Z,3.15
2023-04-03T10:59:52.170Z,3.53
2023-04-03T11:02:58.038Z,3.28
2023-04-03T11:06:08.850Z,3.35
2023-04-03T11:09:26.569Z,2.60
2023-04-03T11:12:51.784Z,2.65
2023-04-03T11:15:55.637Z,3.50
2023-04-03T11:19:01.842Z,3.38
2023-04-03T11:22:25.348Z,3.20
2023-04-03T11:25:31.159Z,2.72
2023-04-03T11:28:33.520Z,2.58
2023-04-03T11:31:56.783Z,2.80
2023-04-03T11:35:02.715Z,2.88
2023-04-03T11:38:09.512Z,3.17
2023-04-03T11:41:14.468Z,2.78
2023-04-03T11:44:39.503Z,7.82
2023-04-03T11:47:55.169Z,3.58
2023-04-03T11:50:58.808Z,3.63
2023-04-03T11:54:46.345Z,4.28
2023-04-03T11:58:00.608Z,3.58
2023-04-03T12:01:03.827Z,2.75
2023-04-03T12:04:15.667Z,3.92
2023-04-03T12:07:21.088Z,2.75
2023-04-03T12:10:31.566Z,3.15
2023-04-03T12:13:36.755Z,1.70
2023-04-03T12:16:39.321Z,2.53
2023-04-03T12:19:50.321Z,3.20
2023-04-03T12:23:27.717Z,2.80
2023-04-03T12:27:08.131Z,2.35
2023-04-03T12:30:33.398Z,2.92
2023-04-03T12:33:45.206Z,2.33
2023-04-03T12:37:08.802Z,3.97
2023-04-03T12:40:37.276Z,3.25
2023-04-03T12:44:00.733Z,3.13
2023-04-03T12:47:24.474Z,2.35
2023-04-03T12:50:31.258Z,3.05
2023-04-03T12:53:36.594Z,2.92
2023-04-03T12:56:39.046Z,2.58
2023-04-03T12:59:42.408Z,2.42
2023-04-03T13:02:47.671Z,2.40
2023-04-03T13:05:49.977Z,2.13
2023-04-03T13:08:58.284Z,1.92
2023-04-03T13:15:24.281Z,1.30
2023-04-03T13:18:34.176Z,1.85
2023-04-03T13:21:37.409Z,2.50
2023-04-03T13:24:41.487Z,2.20
2023-04-03T13:27:45.873Z,2.22
2023-04-03T13:31:00.748Z,2.60
2023-04-03T13:34:19.932Z,1.80
2023-04-03T13:37:32.828Z,1.45
2023-04-03T13:40:48.363Z,1.10
2023-04-03T13:43:53.517Z,1.83
2023-04-03T13:47:01.092Z,2.58
2023-04-03T13:50:30.150Z,2.13
2023-04-03T13:53:35.631Z,1.38
2023-04-03T13:56:40.646Z,1.50
2023-04-03T13:59:47.185Z,1.55
2023-04-03T14:02:49.615Z,2.35
2023-04-03T14:05:54.587Z,1.80
2023-04-03T14:08:56.726Z,1.88
2023-04-03T14:12:20.945Z,2.45
2023-04-03T14:15:32.326Z,1.33
2023-04-03T14:18:34.502Z,1.98
2023-04-03T14:21:36.568Z,1.58
2023-04-03T14:24:40.331Z,1.33
2023-04-03T14:27:45.897Z,1.63
2023-04-03T14:30:51.144Z,3.25
2023-04-03T14:33:53.469Z,2.08
2023-04-03T14:36:55.759Z,2.30
2023-04-03T14:39:59.976Z,2.55
2023-04-03T14:43:02.091Z,1.83
2023-04-03T14:46:04.319Z,2.20
2023-04-03T14:49:35.794Z,1.73
2023-04-03T14:52:38.725Z,2.55
2023-04-03T14:55:46.398Z,1.67
2023-04-03T14:58:51.704Z,1.20
2023-04-03T15:01:54.273Z,2.63
2023-04-03T15:04:58.579Z,2.47
2023-04-03T15:08:01.865Z,1.65
2023-04-03T15:11:04.105Z,1.30
2023-04-03T15:14:06.038Z,1.77
2023-04-03T15:17:16.077Z,1.38
2023-04-03T15:20:20.466Z,1.38
2023-04-03T15:23:27.057Z,2.05
2023-04-03T15:26:29.190Z,2.17
2023-04-03T15:29:32.439Z,1.33
2023-04-03T15:32:35.582Z,0.93
2023-04-03T15:35:38.812Z,1.13
2023-04-03T15:38:41.378Z,1.92
2023-04-03T15:41:46.429Z,1.90
2023-04-03T15:44:48.533Z,1.77
2023-04-03T15:47:51.360Z,1.42
2023-04-03T15:50:53.496Z,2.10
2023-04-03T15:53:55.472Z,1.92
2023-04-03T15:56:58.330Z,1.33
2023-04-03T16:00:00.788Z,2.38
2023-04-03T16:03:07.682Z,2.08
2023-04-03T16:06:09.931Z,2.10
2023-04-03T16:09:12.155Z,1.60
2023-04-03T16:12:14.387Z,2.65
2023-04-03T16:15:16.513Z,1.80
2023-04-03T16:18:19.575Z,2.63
2023-04-03T16:21:23.581Z,2.33
2023-04-03T16:24:26.485Z,3.38
2023-04-03T16:27:30.288Z,2.90
2023-04-03T16:30:32.452Z,2.13
2023-04-03T16:33:35.684Z,3.53
2023-04-03T16:36:38.801Z,3.03
2023-04-03T16:39:42.009Z,3.03
2023-04-03T16:42:44.605Z,3.13
2023-04-03T16:45:46.714Z,3.05
2023-04-03T16:48:48.906Z,2.10
2023-04-03T16:51:53.641Z,3.83
2023-04-03T16:54:56.897Z,2.05
2023-04-03T16:58:00.961Z,2.60
2023-04-03T17:01:17.937Z,3.22
2023-04-03T17:04:20.283Z,2.10
2023-04-03T17:07:25.921Z,2.90
2023-04-03T17:10:28.352Z,3.10
2023-04-03T17:18:15.104Z,3.17
2023-04-03T17:21:20.088Z,1.67
2023-04-03T17:24:31.648Z,1.27
2023-04-03T17:27:39.100Z,2.10
2023-04-03T17:30:42.660Z,1.77
2023-04-03T17:33:49.107Z,1.85
2023-04-03T17:37:00.642Z,1.75
2023-04-03T17:40:04.533Z,2.03
2023-04-03T17:43:07.292Z,1.20
2023-04-03T17:46:10.928Z,1.42
2023-04-03T17:49:16.215Z,1.50
2023-04-03T17:52:18.353Z,2.03
2023-04-03T17:55:20.558Z,1.73
2023-04-03T17:58:22.786Z,1.65
2023-04-03T18:01:29.329Z,1.50
2023-04-03T18:04:36.523Z,1.27
2023-04-03T18:07:41.241Z,1.27
2023-04-03T18:10:47.777Z,1.80
2023-04-03T18:13:51.115Z,2.97
2023-04-03T18:16:53.437Z,3.00
2023-04-03T18:19:56.959Z,1.73
2023-04-03T18:22:59.730Z,2.15
2023-04-03T18:26:03.492Z,1.27
2023-04-03T18:29:09.007Z,1.38
2023-04-03T18:32:16.574Z,1.40
2023-04-03T18:35:18.887Z,1.00
2023-04-03T18:38:20.971Z,1.25
2023-04-03T18:41:27.703Z,1.92
2023-04-03T18:44:33.279Z,1.80
2023-04-03T18:47:37.079Z,1.27
2023-04-03T18:50:39.216Z,2.13
2023-04-03T18:53:42.342Z,2.08
2023-04-03T18:56:45.347Z,1.10
2023-04-03T18:59:47.817Z,1.52
2023-04-03T19:02:50.265Z,2.28
2023-04-03T19:05:52.448Z,1.77
2023-04-03T19:08:54.862Z,1.48
2023-04-03T19:11:56.909Z,2.17
2023-04-03T19:14:59.137Z,3.50
2023-04-03T19:18:01.284Z,1.85
2023-04-03T19:21:04.585Z,1.48
2023-04-03T19:24:08.592Z,1.05
2023-04-03T19:27:11.022Z,1.13
2023-04-03T19:30:14.136Z,2.03
2023-04-03T19:33:16.246Z,2.30
2023-04-03T19:36:18.689Z,1.90
2023-04-03T19:39:21.025Z,1.15
2023-04-03T19:42:23.456Z,0.90
2023-04-03T19:45:27.920Z,2.10
2023-04-03T19:48:30.097Z,1.40
2023-04-03T19:51:32.307Z,1.98
2023-04-03T19:54:34.574Z,1.00
2023-04-03T19:57:36.961Z,1.25
2023-04-03T20:00:42.729Z,2.70
2023-04-03T20:03:45.626Z,2.58
2023-04-03T20:06:47.618Z,1.40
2023-04-03T20:09:49.739Z,1.08
2023-04-03T20:12:52.678Z,1.42
2023-04-03T20:15:54.920Z,2.63
2023-04-03T20:18:58.129Z,2.47
2023-04-03T20:22:01.500Z,2.30
2023-04-03T20:25:08.289Z,1.50
2023-04-03T20:28:12.488Z,1.52
2023-04-03T20:31:14.797Z,1.60
2023-04-03T20:34:18.478Z,2.45
2023-04-03T20:37:23.173Z,2.70
2023-04-03T20:40:26.318Z,1.60
2023-04-03T20:43:28.790Z,1.40
2023-04-03T20:46:48.975Z,1.35
2023-04-03T20:49:53.973Z,2.03
2023-04-03T20:52:57.875Z,2.15
2023-04-03T20:56:01.484Z,2.67
2023-04-03T20:59:05.037Z,2.03
2023-04-03T21:02:07.140Z,2.50
2023-04-03T21:05:11.611Z,2.83
2023-04-03T21:08:51.079Z,1.13
2023-04-03T21:12:31.060Z,2.25
2023-04-03T21:15:49.260Z,1.65
2023-04-03T21:19:13.867Z,2.57
2023-04-03T21:22:16.414Z,2.25
2023-04-03T21:25:18.574Z,2.55
2023-04-03T21:28:24.024Z,1.42
2023-04-03T21:31:57.317Z,2.25
2023-04-03T21:35:02.086Z,2.47
2023-04-03T21:38:04.995Z,1.55
2023-04-03T21:41:07.402Z,1.98
2023-04-03T21:44:09.693Z,1.65
2023-04-03T21:47:12.583Z,2.08
2023-04-03T21:50:15.678Z,1.85
2023-04-03T21:53:19.372Z,1.60
2023-04-03T21:56:23.186Z,1.58
2023-04-03T21:59:25.634Z,2.05
2023-04-03T22:02:28.190Z,1.50
2023-04-03T22:05:32.280Z,1.50
2023-04-03T22:08:35.469Z,2.80
2023-04-03T22:11:38.267Z,1.77
2023-04-03T22:14:40.292Z,2.13
2023-04-03T22:17:42.601Z,1.92
2023-04-03T22:20:44.689Z,1.83
2023-04-03T22:23:46.835Z,2.63
2023-04-03T22:26:49.722Z,2.10
2023-04-03T22:29:51.891Z,2.22
2023-04-03T22:32:53.989Z,2.33
2023-04-03T22:35:56.878Z,2.42
2023-04-03T22:39:00.285Z,1.77
2023-04-03T22:42:02.346Z,1.52
2023-04-03T22:45:04.601Z,2.08
2023-04-03T22:48:08.049Z,2.00
2023-04-03T22:51:10.117Z,1.65
2023-04-03T22:54:12.168Z,3.05
2023-04-03T22:57:14.255Z,1.95
2023-04-03T23:00:16.674Z,1.70
2023-04-03T23:03:19.387Z,1.60
2023-04-03T23:06:21.373Z,1.58
2023-04-03T23:09:23.566Z,3.25
2023-04-03T23:12:26.019Z,1.63
2023-04-03T23:15:27.970Z,1.60
2023-04-03T23:18:31.777Z,2.38
2023-04-03T23:21:34.218Z,2.20
2023-04-03T23:24:37.707Z,1.77
2023-04-03T23:27:39.817Z,2.22
2023-04-03T23:30:43.246Z,1.70
2023-04-03T23:33:45.317Z,2.97
2023-04-03T23:36:47.314Z,2.45
2023-04-03T23:39:49.607Z,2.22
2023-04-03T23:42:51.710Z,2.95
2023-04-03T23:45:54.384Z,2.53
2023-04-03T23:48:56.468Z,2.78
2023-04-03T23:51:58.561Z,2.20
2023-04-03T23:55:00.808Z,2.00
2023-04-03T23:58:02.960Z,2.63
